Latest Weather Observations for Albany Airport

IDW60801

Issued at 9:02 pm WST Saturday 31 January 2015 (issued every 30 minutes, with the page automatically refreshed every 10 minutes)

About weather observations | Map of weather stations | Latest weather observations for WA | Other Formats
Station Details ID: 009999 Name: ALBANY AIRPORT Lat: -34.94 Lon: 117.82 Height: 68.4 m
Data from the previous 72 hours. | See also: Recent months at Albany Airport
Date/Time
WST
Temp
°C
App
Temp
°C
Dew
Point
Rel
Hum
%
Delta-T
°C
Wind Press
QNH
hPa
Press
MSL
hPa
Rain
since 9 am
mm
Dir
 
Spd
km/h
Gust
km/h
Spd
kts
Gust
kts
31/09:00pm 18.3 13.8 12.6 69 3.2 E 28 33 15 18 1021.1 1021.1 0.0
31/08:30pm 18.3 14.7 13.2 72 2.9 E 24 32 13 17 1020.8 - 0.0
31/08:00pm 18.4 15.1 12.9 70 3.1 E 22 35 12 19 1020.5 - 0.0
31/07:30pm 18.4 13.8 12.3 67 3.4 E 28 37 15 20 1020.2 - 0.0
31/07:00pm 19.3 14.4 12.7 65 3.7 E 30 39 16 21 1020.1 - 0.0
31/06:30pm 19.9 15.0 12.6 63 4.1 E 30 39 16 21 1020.3 - 0.0
31/06:00pm 20.8 15.7 13.1 61 4.4 E 32 41 17 22 1020.1 1020.1 0.0
31/05:30pm 21.2 15.8 12.7 58 4.8 ESE 33 46 18 25 1019.7 - 0.0
31/05:00pm 21.8 16.6 13.5 59 4.8 ESE 33 44 18 24 1019.6 - 0.0
31/04:30pm 22.4 17.2 13.4 56 5.2 ESE 33 44 18 24 1019.4 - 0.0
31/04:00pm 23.4 18.3 13.6 54 5.7 E 33 43 18 23 1019.5 - 0.0
31/03:30pm 23.3 18.1 13.5 54 5.7 ESE 33 43 18 23 1019.3 - 0.0
31/03:00pm 24.1 19.4 13.2 50 6.3 E 30 44 16 24 1019.5 1019.5 0.0
31/02:30pm 24.2 19.2 13.4 51 6.3 E 32 46 17 25 1019.6 - 0.0
31/02:00pm 24.2 19.1 13.0 49 6.5 E 32 41 17 22 1019.9 - 0.0
31/01:30pm 22.4 16.8 13.2 56 5.3 ESE 35 44 19 24 1020.2 - 0.0
31/01:00pm 23.3 18.3 13.3 53 5.8 E 32 43 17 23 1020.4 - 0.0
31/12:30pm 23.4 18.7 13.2 52 5.9 E 30 41 16 22 1020.7 - 0.0
31/12:00pm 22.5 17.7 12.9 54 5.5 E 30 41 16 22 1020.8 1020.8 0.0
31/11:30am 22.8 17.6 12.9 53 5.7 E 32 43 17 23 1020.9 - 0.0
31/11:00am 23.1 18.3 12.8 52 5.9 E 30 41 16 22 1020.9 - 0.0
31/10:30am 22.5 17.3 12.9 54 5.5 E 32 43 17 23 1020.9 - 0.0
31/10:00am 21.8 16.7 13.1 57 5.0 E 32 43 17 23 1020.9 - 0.0
31/09:30am 22.2 17.9 12.1 52 5.7 E 26 37 14 20 1020.9 - 0.0
31/09:00am 22.0 16.9 12.0 53 5.6 E 30 44 16 24 1021.0 1021.0 0.0
31/08:30am 21.0 16.0 13.5 62 4.3 E 32 44 17 24 1021.2 - 0.0
31/08:00am 20.3 16.4 13.3 64 4.0 E 26 39 14 21 1021.3 - 0.0
31/07:30am 20.1 16.7 13.8 67 3.6 E 24 35 13 19 1021.1 - 0.0
31/07:00am 19.2 16.0 14.2 73 2.9 E 24 30 13 16 1020.7 - 0.0
31/06:00am 18.7 16.2 14.2 75 2.6 E 20 30 11 16 1020.3 1020.3 0.0
31/05:30am 18.4 16.4 15.0 80 2.0 E 19 26 10 14 1020.0 - 0.0
31/05:00am 18.3 15.7 14.9 80 2.0 E 22 32 12 17 1019.8 - 0.0
31/04:30am 18.5 16.0 15.1 80 2.0 E 22 30 12 16 1019.5 - 0.0
31/04:00am 18.0 15.7 14.7 81 1.9 E 20 26 11 14 1019.4 - 0.0
31/03:30am 18.2 15.5 14.6 79 2.1 E 22 32 12 17 1019.3 - 0.0
31/03:00am 17.8 15.6 14.3 80 2.0 E 19 28 10 15 1019.3 1019.3 0.0
31/02:30am 17.7 15.3 13.8 78 2.2 E 19 24 10 13 1019.3 - 0.0
31/02:00am 18.5 14.9 14.1 75 2.5 E 26 35 14 19 1019.3 - 0.0
31/01:30am 18.6 16.3 14.6 77 2.3 E 20 32 11 17 1019.3 - 0.0
31/01:00am 18.7 15.3 13.8 73 2.8 E 24 35 13 19 1019.4 - 0.0
31/12:30am 18.6 15.1 13.5 72 2.9 E 24 33 13 18 1019.7 - 0.0
31/12:00am 18.6 15.2 13.7 73 2.8 E 24 33 13 18 1019.9 1019.9 0.0
 
Date/Time
WST
Temp
°C
App
Temp
°C
Dew
Point
Rel
Hum
%
Delta-T
°C
Wind Press
QNH
hPa
Press
MSL
hPa
Rain
since 9 am
mm
Dir
 
Spd
km/h
Gust
km/h
Spd
kts
Gust
kts
30/11:30pm 18.8 14.1 13.3 70 3.1 E 30 39 16 21 1020.1 - 0.0
30/11:00pm 18.8 14.1 13.3 70 3.1 E 30 44 16 24 1020.2 - 0.0
30/10:30pm 19.1 14.3 12.9 67 3.5 E 30 43 16 23 1020.1 - 0.0
30/10:00pm 19.0 15.1 13.4 70 3.2 E 26 37 14 20 1020.2 - 0.0
30/09:30pm 19.1 15.3 13.5 70 3.2 E 26 33 14 18 1020.3 - 0.0
30/09:00pm 19.1 14.5 13.5 70 3.2 E 30 39 16 21 1020.2 1020.2 0.0
30/08:30pm 19.0 13.9 13.2 69 3.3 E 32 43 17 23 1020.1 - 0.0
30/08:00pm 19.1 14.0 13.1 68 3.4 E 32 43 17 23 1019.8 - 0.0
30/07:30pm 19.4 14.7 13.2 67 3.5 E 30 39 16 21 1019.6 - 0.0
30/07:00pm 19.5 15.2 13.2 67 3.6 E 28 39 15 21 1019.4 - 0.0
30/06:30pm 19.6 14.2 12.7 64 3.9 E 33 43 18 23 1019.3 - 0.0
30/06:00pm 20.5 15.3 12.7 61 4.4 E 32 43 17 23 1018.9 1018.9 0.0
30/05:30pm 21.2 16.0 13.4 61 4.5 E 33 43 18 23 1018.4 - 0.0
30/05:00pm 21.7 16.6 13.2 58 4.9 E 32 44 17 24 1018.2 - 0.0
30/04:30pm 22.6 17.0 13.4 56 5.3 E 35 44 19 24 1018.0 - 0.0
30/04:00pm 22.8 17.2 13.3 55 5.5 E 35 46 19 25 1017.9 - 0.0
30/03:30pm 23.5 18.3 13.5 53 5.8 ESE 33 44 18 24 1017.9 - 0.0
30/03:00pm 23.5 18.4 13.7 54 5.7 E 33 46 18 25 1017.8 1017.8 0.0
30/02:30pm 23.8 18.8 13.9 54 5.8 ESE 33 46 18 25 1017.8 - 0.0
30/02:00pm 24.6 20.2 14.1 52 6.2 E 30 39 16 21 1017.8 - 0.0
30/01:30pm 24.7 19.8 14.4 52 6.1 E 33 43 18 23 1017.8 - 0.0
30/01:00pm 25.1 21.0 14.9 53 6.1 E 30 44 16 24 1018.1 - 0.0
30/12:30pm 25.0 21.0 15.2 54 5.9 E 30 41 16 22 1018.2 - 0.0
30/12:00pm 24.8 20.8 15.2 55 5.8 E 30 39 16 21 1018.4 1018.4 0.0
30/11:30am 24.7 21.1 15.2 55 5.7 E 28 37 15 20 1018.7 - 0.0
30/11:00am 24.1 19.6 14.9 56 5.5 ESE 32 41 17 22 1018.8 - 0.0
30/10:30am 23.8 20.9 15.1 58 5.2 E 24 35 13 19 1018.9 - 0.0
30/10:00am 23.5 19.5 15.1 59 5.0 ESE 30 39 16 21 1019.1 - 0.0
30/09:30am 22.3 19.0 14.9 63 4.4 E 26 33 14 18 1019.2 - 0.0
30/09:00am 21.9 18.5 14.8 64 4.2 ESE 26 35 14 19 1019.1 1019.1 0.0
30/08:30am 21.4 18.2 15.2 68 3.7 E 26 37 14 20 1019.0 - 0.0
30/08:00am 20.5 16.8 15.1 71 3.2 E 28 37 15 20 1018.8 - 0.0
30/07:30am 20.7 18.3 15.5 72 3.1 E 22 32 12 17 1018.4 - 0.0
30/07:00am 20.2 18.1 16.2 78 2.4 ESE 22 32 12 17 1018.1 - 0.0
30/06:30am 19.9 18.4 16.4 80 2.1 ESE 19 26 10 14 1017.7 - 0.0
30/06:00am 19.8 18.8 16.5 81 2.0 ESE 17 26 9 14 1017.5 1017.5 0.0
30/05:30am 19.6 18.2 16.6 83 1.8 E 19 24 10 13 1017.1 - 0.0
30/05:00am 19.7 19.2 16.9 84 1.7 ESE 15 20 8 11 1016.9 - 0.0
30/04:51am 19.6 18.8 17.1 85 1.5 ESE 17 22 9 12 1016.8 - 0.0
30/04:30am 19.4 18.8 17.6 89 1.1 E 17 20 9 11 1016.4 - 0.0
30/04:00am 19.3 19.2 17.8 91 0.9 ESE 15 19 8 10 1015.7 - 0.0
30/03:30am 19.1 19.3 17.6 91 0.9 ESE 13 19 7 10 1015.5 - 0.0
30/03:00am 18.7 18.4 17.4 92 0.8 ESE 15 19 8 10 1015.0 1015.0 0.0
30/02:51am 18.8 18.1 17.3 91 0.9 E 17 20 9 11 1014.9 - 0.0
30/02:30am 19.0 18.8 17.5 91 0.9 E 15 20 8 11 1015.0 - 0.0
30/02:00am 19.1 19.2 17.5 90 1.0 ESE 13 19 7 10 1015.2 - 0.0
30/01:41am 19.3 18.7 17.5 89 1.1 E 17 20 9 11 1015.1 - 0.0
30/01:30am 19.5 18.9 17.5 88 1.2 ESE 17 22 9 12 1015.2 - 0.0
30/01:18am 19.6 19.0 17.5 88 1.3 ESE 17 24 9 13 1015.3 - 0.0
30/01:00am 19.5 18.4 17.4 88 1.3 ESE 19 24 10 13 1015.4 - 0.0
30/12:30am 19.9 19.6 17.3 85 1.6 SE 15 20 8 11 1015.9 - 0.0
30/12:00am 19.9 20.8 17.6 86 1.4 SE 9 13 5 7 1016.1 1016.1 0.0
 
Date/Time
WST
Temp
°C
App
Temp
°C
Dew
Point
Rel
Hum
%
Delta-T
°C
Wind Press
QNH
hPa
Press
MSL
hPa
Rain
since 9 am
mm
Dir
 
Spd
km/h
Gust
km/h
Spd
kts
Gust
kts
29/11:30pm 19.9 19.7 17.6 86 1.4 S 15 20 8 11 1016.1 - 0.0
29/11:00pm 20.1 20.0 17.8 86 1.4 SE 15 20 8 11 1015.6 - 0.0
29/10:30pm 20.0 19.9 17.9 88 1.3 SE 15 19 8 10 1015.4 - 0.0
29/10:00pm 20.0 21.2 18.2 89 1.1 SSE 9 13 5 7 1015.1 - 0.0
29/09:30pm 19.9 20.6 18.0 89 1.2 SSE 11 17 6 9 1015.2 - 0.0
29/09:00pm 20.0 21.1 18.1 89 1.2 SE 9 13 5 7 1014.9 1014.9 0.0
29/08:30pm 20.1 20.6 18.3 89 1.1 SSE 13 20 7 11 1014.6 - 0.0
29/08:00pm 20.1 20.1 18.2 89 1.2 S 15 20 8 11 1014.3 - 0.0
29/07:45pm 20.3 20.7 18.2 88 1.3 S 13 20 7 11 1014.2 - 0.0
29/07:30pm 20.4 20.9 18.3 88 1.3 S 13 20 7 11 1013.9 - 0.0
29/07:00pm 21.2 20.9 18.3 83 1.8 S 17 22 9 12 1013.0 - 0.0
29/06:30pm 21.8 21.6 18.6 82 2.0 S 17 24 9 13 1012.7 - 0.0
29/06:00pm 24.2 22.9 15.8 59 5.1 SSE 17 22 9 12 1011.9 1011.8 0.0
29/05:30pm 25.1 24.1 16.5 59 5.3 SSE 17 22 9 12 1011.3 - 0.0
29/05:00pm 26.5 24.1 14.3 47 7.3 SSE 20 28 11 15 1011.0 - 0.0
29/04:30pm 28.3 26.0 14.0 41 8.6 SSE 19 24 10 13 1010.9 - 0.0
29/04:00pm 28.7 25.8 14.1 40 8.8 SE 22 28 12 15 1010.9 - 0.0
29/03:30pm 28.8 24.8 12.9 37 9.4 SE 26 32 14 17 1010.6 - 0.0
29/03:00pm 31.2 26.9 9.5 26 12.3 SE 22 28 12 15 1010.5 1010.5 0.0
29/02:30pm 31.4 26.9 10.1 26 12.2 SE 24 30 13 16 1010.5 - 0.0
29/02:00pm 33.0 28.8 8.4 22 13.8 SE 20 30 11 16 1010.5 - 0.0
29/01:30pm 32.9 29.2 7.9 21 13.9 SE 17 24 9 13 1010.6 - 0.0
29/01:00pm 32.6 27.9 6.1 19 14.3 SE 20 26 11 14 1010.8 - 0.0
29/12:30pm 32.8 28.8 8.3 22 13.7 SE 19 24 10 13 1010.9 - 0.0
29/12:00pm 32.9 29.8 10.4 25 13.0 SSE 17 22 9 12 1011.0 1011.0 0.0
29/11:30am 31.6 29.7 13.1 32 11.1 ESE 15 24 8 13 1011.1 - 0.0
29/11:00am 31.1 31.4 14.6 36 10.1 ESE 6 11 3 6 1011.3 - 0.0
29/10:30am 30.1 29.8 14.3 38 9.6 NNE 9 13 5 7 1011.6 - 0.0
29/10:00am 29.1 30.0 16.5 46 7.9 NNE 7 17 4 9 1011.4 - 0.0
29/09:30am 26.9 27.6 16.0 51 6.7 E 7 11 4 6 1011.3 - 0.0
29/09:00am 25.7 26.0 16.1 55 5.9 NE 9 13 5 7 1011.3 1011.3 5.6
29/08:30am 23.9 24.5 15.4 59 5.1 ENE 6 9 3 5 1011.3 - 5.6
29/08:00am 23.9 23.8 16.0 61 4.8 NNE 11 13 6 7 1011.6 - 5.6
29/07:30am 23.0 23.6 15.9 64 4.3 N 7 11 4 6 1011.3 - 5.6
29/07:00am 22.1 24.2 16.2 69 3.6 CALM 0 6 0 3 1011.0 - 5.6
29/06:30am 19.3 21.1 15.6 79 2.2 CALM 0 0 0 0 1010.7 - 5.6
29/06:00am 17.7 18.6 15.0 84 1.6 S 4 9 2 5 1010.1 1010.1 5.6
29/05:30am 17.8 17.7 14.9 83 1.7 S 9 13 5 7 1009.6 - 5.6
29/05:00am 18.6 17.3 14.7 78 2.3 SW 15 17 8 9 1009.3 - 5.6
29/04:30am 19.4 19.2 14.8 75 2.7 E 9 11 5 6 1008.1 - 5.6
29/04:00am 19.7 18.0 14.6 72 3.0 ENE 17 19 9 10 1007.6 - 5.6
29/03:30am 20.5 19.0 14.3 67 3.6 NE 15 20 8 11 1007.7 - 5.6
29/03:00am 21.1 19.1 13.9 63 4.2 NE 17 20 9 11 1007.7 1007.7 5.6
29/02:30am 21.8 19.3 13.5 59 4.8 NE 19 24 10 13 1007.7 - 5.6
29/02:00am 21.6 19.7 14.1 62 4.4 ENE 17 20 9 11 1007.9 - 5.6
29/01:30am 21.3 19.8 14.3 64 4.1 NE 15 19 8 10 1008.1 - 5.6
29/01:00am 21.7 20.1 15.0 65 4.0 NE 17 20 9 11 1008.3 - 5.6
29/12:30am 21.7 20.4 15.7 68 3.6 NE 17 24 9 13 1008.4 - 5.6
29/12:00am 22.8 20.7 14.7 60 4.8 NE 19 26 10 14 1008.4 1008.4 5.6
 
Date/Time
WST
Temp
°C
App
Temp
°C
Dew
Point
Rel
Hum
%
Delta-T
°C
Wind Press
QNH
hPa
Press
MSL
hPa
Rain
since 9 am
mm
Dir
 
Spd
km/h
Gust
km/h
Spd
kts
Gust
kts
28/11:30pm 22.9 19.8 14.6 59 4.9 ENE 24 35 13 19 1008.2 - 5.6
28/11:00pm 22.5 19.5 14.9 62 4.5 ENE 24 32 13 17 1008.7 - 5.6
28/10:30pm 21.7 20.1 16.1 70 3.4 ENE 19 22 10 12 1009.8 - 5.6
28/10:00pm 21.3 19.2 17.1 77 2.6 ENE 24 32 13 17 1010.2 - 5.6
28/09:30pm 22.4 21.0 15.6 65 4.1 E 17 20 9 11 1010.6 - 5.6

Other Formats:

Comma delimited format used in spreadsheet applications
http://www.bom.gov.au/fwo/IDW60801/IDW60801.94802.axf

JavaScript Object Notation format (JSON) in row-major order
http://www.bom.gov.au/fwo/IDW60801/IDW60801.94802.json